createdAt,value
2023-01-06T00:01:28.607Z,63.68
2023-01-06T00:03:59.578Z,63.53
2023-01-06T00:06:31.084Z,63.37
2023-01-06T00:09:01.150Z,63.40
2023-01-06T00:11:29.597Z,63.44
2023-01-06T00:13:59.668Z,63.17
2023-01-06T00:16:27.591Z,63.33
2023-01-06T00:18:57.121Z,63.22
2023-01-06T00:21:25.633Z,63.30
2023-01-06T00:23:53.702Z,63.29
2023-01-06T00:26:22.046Z,63.33
2023-01-06T00:28:50.029Z,63.32
2023-01-06T00:31:19.658Z,63.15
2023-01-06T00:33:47.733Z,63.08
2023-01-06T00:36:16.145Z,63.26
2023-01-06T00:38:44.320Z,63.21
2023-01-06T00:41:27.754Z,63.53
2023-01-06T00:43:56.433Z,63.18
2023-01-06T00:46:29.496Z,63.07
2023-01-06T00:49:06.924Z,63.08
2023-01-06T00:51:37.041Z,62.74
2023-01-06T00:54:05.109Z,62.91
2023-01-06T00:56:33.063Z,62.75
2023-01-06T00:59:03.049Z,62.63
2023-01-06T01:01:32.635Z,62.67
2023-01-06T01:04:00.810Z,62.71
2023-01-06T01:06:29.178Z,62.52
2023-01-06T01:08:58.677Z,62.89
2023-01-06T01:11:46.427Z,62.59
2023-01-06T01:14:15.433Z,62.82
2023-01-06T01:16:45.153Z,62.93
2023-01-06T01:19:13.837Z,62.66
2023-01-06T01:21:41.840Z,62.40
2023-01-06T01:24:10.128Z,62.41
2023-01-06T01:26:38.124Z,62.13
2023-01-06T01:29:06.345Z,62.33
2023-01-06T01:31:34.700Z,61.96
2023-01-06T01:34:04.575Z,61.95
2023-01-06T01:36:32.564Z,62.01
2023-01-06T01:39:00.810Z,61.95
2023-01-06T01:41:30.401Z,62.01
2023-01-06T01:44:00.601Z,61.97
2023-01-06T01:46:32.404Z,62.08
2023-01-06T01:49:04.126Z,61.78
2023-01-06T01:51:37.012Z,61.56
2023-01-06T01:54:09.087Z,61.80
2023-01-06T01:56:42.902Z,61.26
2023-01-06T01:59:13.401Z,61.11
2023-01-06T02:01:41.643Z,61.24
2023-01-06T02:04:12.095Z,61.35
2023-01-06T02:06:42.329Z,61.12
2023-01-06T02:09:16.276Z,61.13
2023-01-06T02:11:44.711Z,60.88
2023-01-06T02:14:14.376Z,60.79
2023-01-06T02:16:58.319Z,60.62
2023-01-06T02:19:59.948Z,60.43
2023-01-06T02:22:48.903Z,60.68
2023-01-06T02:25:46.108Z,60.28
2023-01-06T02:28:52.770Z,60.48
2023-01-06T02:31:48.243Z,60.65
2023-01-06T02:34:24.389Z,60.48
2023-01-06T02:37:03.420Z,60.68
2023-01-06T02:39:42.264Z,60.50
2023-01-06T02:42:19.969Z,60.75
2023-01-06T02:44:57.475Z,60.71
2023-01-06T02:47:35.022Z,60.63
2023-01-06T02:50:15.756Z,60.40
2023-01-06T02:52:47.767Z,60.36
2023-01-06T02:55:23.592Z,60.50
2023-01-06T02:57:56.829Z,60.36
2023-01-06T03:00:30.387Z,60.16
2023-01-06T03:03:04.632Z,60.39
2023-01-06T03:05:36.687Z,60.25
2023-01-06T03:08:10.562Z,60.64
2023-01-06T03:10:40.546Z,60.86
2023-01-06T03:13:14.390Z,60.78
2023-01-06T03:15:42.734Z,60.88
2023-01-06T03:18:12.189Z,61.10
2023-01-06T03:20:41.442Z,61.17
2023-01-06T03:23:09.569Z,61.43
2023-01-06T03:25:39.409Z,61.72
2023-01-06T03:28:07.719Z,61.75
2023-01-06T03:30:43.766Z,61.84
2023-01-06T03:33:22.497Z,61.79
2023-01-06T03:36:01.980Z,61.85
2023-01-06T03:38:43.642Z,62.14
2023-01-06T03:41:44.619Z,62.20
2023-01-06T03:44:20.056Z,62.27
2023-01-06T03:46:53.935Z,62.21
2023-01-06T03:49:29.951Z,62.27
2023-01-06T03:52:00.394Z,62.40
2023-01-06T03:54:39.482Z,62.73
2023-01-06T03:57:10.728Z,62.20
2023-01-06T03:59:44.243Z,61.78
2023-01-06T04:02:12.593Z,61.51
2023-01-06T04:04:42.731Z,61.64
2023-01-06T04:07:10.835Z,61.58
2023-01-06T04:09:38.706Z,62.04
2023-01-06T04:12:24.248Z,62.29
2023-01-06T04:14:52.123Z,62.64
2023-01-06T04:17:20.333Z,62.55
2023-01-06T04:19:49.676Z,62.27
2023-01-06T04:22:17.605Z,62.57
2023-01-06T04:24:45.567Z,62.43
2023-01-06T04:27:13.528Z,62.13
2023-01-06T04:29:41.724Z,62.15
2023-01-06T04:32:09.850Z,62.11
2023-01-06T04:34:37.838Z,62.28
2023-01-06T04:37:07.495Z,62.17
2023-01-06T04:39:35.489Z,62.23
2023-01-06T04:42:03.418Z,62.42
2023-01-06T04:44:31.351Z,62.44
2023-01-06T04:46:59.312Z,62.65
2023-01-06T04:49:27.216Z,62.50
2023-01-06T04:51:55.359Z,62.49
2023-01-06T04:54:24.877Z,62.54
2023-01-06T04:56:52.903Z,62.38
2023-01-06T04:59:21.373Z,62.20
2023-01-06T05:01:49.542Z,62.35
2023-01-06T05:04:17.553Z,62.32
2023-01-06T05:06:45.743Z,62.24
2023-01-06T05:09:13.944Z,62.30
2023-01-06T05:11:43.485Z,62.27
2023-01-06T05:14:11.753Z,62.36
2023-01-06T05:16:40.052Z,62.33
2023-01-06T05:19:08.096Z,62.18
2023-01-06T05:21:36.081Z,62.51
2023-01-06T05:24:04.113Z,62.35
2023-01-06T05:26:32.181Z,62.31
2023-01-06T05:29:01.545Z,62.25
2023-01-06T05:31:29.638Z,62.23
2023-01-06T05:33:57.889Z,62.28
2023-01-06T05:36:25.810Z,62.26
2023-01-06T05:38:54.953Z,62.26
2023-01-06T05:41:23.157Z,62.14
2023-01-06T05:43:51.100Z,62.26
2023-01-06T05:46:20.502Z,62.07
2023-01-06T05:48:48.376Z,62.10
2023-01-06T05:51:17.631Z,62.10
2023-01-06T05:53:47.439Z,62.10
2023-01-06T05:56:18.396Z,62.03
2023-01-06T05:58:47.892Z,62.00
2023-01-06T06:01:18.214Z,62.09
2023-01-06T06:03:47.947Z,62.30
2023-01-06T06:06:16.966Z,62.06
2023-01-06T06:08:44.892Z,62.05
2023-01-06T06:11:15.147Z,62.04
2023-01-06T06:13:47.154Z,61.83
2023-01-06T06:16:17.092Z,61.71
2023-01-06T06:18:45.584Z,61.76
2023-01-06T06:21:17.186Z,61.71
2023-01-06T06:23:45.542Z,61.39
2023-01-06T06:26:13.676Z,61.48
2023-01-06T06:28:42.606Z,61.53
2023-01-06T06:31:12.204Z,61.31
2023-01-06T06:33:40.687Z,61.35
2023-01-06T06:36:12.320Z,61.50
2023-01-06T06:38:41.687Z,61.84
2023-01-06T06:41:09.677Z,61.62
2023-01-06T06:43:37.749Z,61.61
2023-01-06T06:46:06.269Z,61.58
2023-01-06T06:48:34.749Z,61.61
2023-01-06T06:51:04.778Z,61.61
2023-01-06T06:53:34.058Z,61.62
2023-01-06T06:56:03.469Z,61.96
2023-01-06T06:58:31.804Z,61.63
2023-01-06T07:01:00.020Z,61.58
2023-01-06T07:03:27.938Z,61.77
2023-01-06T07:05:57.388Z,61.81
2023-01-06T07:08:25.458Z,61.82
2023-01-06T07:10:53.519Z,61.54
2023-01-06T07:13:22.947Z,61.47
2023-01-06T07:15:51.011Z,61.55
2023-01-06T07:18:19.370Z,61.12
2023-01-06T07:20:49.801Z,61.29
2023-01-06T07:23:17.767Z,60.92
2023-01-06T07:25:45.796Z,61.14
2023-01-06T07:28:14.027Z,61.35
2023-01-06T07:30:43.454Z,61.57
2023-01-06T07:33:11.551Z,61.75
2023-01-06T07:35:39.608Z,61.65
2023-01-06T07:38:08.911Z,61.52
2023-01-06T07:40:37.122Z,61.95
2023-01-06T07:43:06.542Z,61.89
2023-01-06T07:45:35.293Z,61.73
2023-01-06T07:48:05.577Z,61.98
2023-01-06T07:50:33.978Z,61.92
2023-01-06T07:53:03.581Z,61.86
2023-01-06T07:55:31.708Z,61.63
2023-01-06T07:57:59.935Z,61.90
2023-01-06T08:00:28.087Z,61.63
2023-01-06T08:02:56.078Z,61.64
2023-01-06T08:05:25.585Z,61.75
2023-01-06T08:07:53.485Z,61.22
2023-01-06T08:10:21.444Z,61.20
2023-01-06T08:12:49.390Z,61.52
2023-01-06T08:15:17.384Z,61.38
2023-01-06T08:17:45.378Z,61.77
2023-01-06T08:20:13.654Z,61.42
2023-01-06T08:22:43.040Z,61.68
2023-01-06T08:25:11.746Z,61.74
2023-01-06T08:27:39.904Z,61.67
2023-01-06T08:30:09.261Z,61.84
2023-01-06T08:32:37.221Z,61.80
2023-01-06T08:35:05.530Z,61.82
2023-01-06T08:37:33.499Z,61.81
2023-01-06T08:40:02.806Z,61.94
2023-01-06T08:42:30.784Z,61.51
2023-01-06T08:44:59.753Z,61.81
2023-01-06T08:47:27.801Z,61.83
2023-01-06T08:49:55.713Z,61.69
2023-01-06T08:52:23.753Z,61.68
2023-01-06T08:54:51.722Z,61.77
2023-01-06T08:57:21.151Z,61.78
2023-01-06T08:59:49.132Z,61.89
2023-01-06T09:02:17.299Z,61.84
2023-01-06T09:04:45.400Z,61.88
2023-01-06T09:07:13.440Z,61.74
2023-01-06T09:09:41.480Z,61.93
2023-01-06T09:12:09.533Z,61.84
2023-01-06T09:14:38.997Z,61.96
2023-01-06T09:17:06.944Z,61.79
2023-01-06T09:19:34.993Z,62.10
2023-01-06T09:22:02.954Z,62.24
2023-01-06T09:24:31.440Z,61.97
2023-01-06T09:26:59.651Z,62.10
2023-01-06T09:29:27.800Z,62.05
2023-01-06T09:31:57.300Z,61.92
2023-01-06T09:34:25.399Z,61.90
2023-01-06T09:36:53.515Z,62.19
2023-01-06T09:39:21.513Z,61.97
2023-01-06T09:42:20.400Z,62.02
2023-01-06T09:44:52.264Z,62.05
2023-01-06T09:47:25.633Z,61.96
2023-01-06T09:50:00.688Z,62.43
2023-01-06T09:52:38.933Z,62.01
2023-01-06T09:55:09.470Z,62.21
2023-01-06T09:57:41.285Z,61.87
2023-01-06T10:00:21.417Z,62.26
2023-01-06T10:02:50.876Z,62.28
2023-01-06T10:05:21.979Z,62.23
2023-01-06T10:07:59.780Z,62.20
2023-01-06T10:10:37.948Z,62.00
2023-01-06T10:13:20.756Z,62.11
2023-01-06T10:15:53.531Z,62.17
2023-01-06T10:18:36.815Z,62.26
2023-01-06T10:21:15.766Z,62.23
2023-01-06T10:24:13.228Z,62.36
2023-01-06T10:26:45.178Z,62.27
2023-01-06T10:29:16.193Z,62.08
2023-01-06T10:31:47.283Z,62.06
2023-01-06T10:34:22.209Z,62.07
2023-01-06T10:36:56.053Z,61.97
2023-01-06T10:39:26.647Z,62.02
2023-01-06T10:42:16.583Z,62.09
2023-01-06T10:44:44.624Z,62.01
2023-01-06T10:47:20.037Z,62.03
2023-01-06T10:49:49.539Z,61.92
2023-01-06T10:52:18.203Z,61.83
2023-01-06T10:54:47.143Z,61.89
2023-01-06T10:57:26.949Z,61.82
2023-01-06T11:00:13.358Z,61.80
2023-01-06T11:02:46.230Z,61.87
2023-01-06T11:05:17.899Z,61.65
2023-01-06T11:07:54.715Z,61.70
2023-01-06T11:10:32.101Z,61.38
2023-01-06T11:13:03.654Z,61.31
2023-01-06T11:15:39.397Z,61.24
2023-01-06T11:18:18.649Z,61.23
2023-01-06T11:21:03.590Z,61.31
2023-01-06T11:23:31.719Z,61.22
2023-01-06T11:26:06.167Z,61.27
2023-01-06T11:28:34.355Z,61.67
2023-01-06T11:31:07.349Z,61.18
2023-01-06T11:33:37.848Z,61.14
2023-01-06T11:36:13.121Z,61.07
2023-01-06T11:38:46.314Z,60.85
2023-01-06T11:41:22.640Z,60.94
2023-01-06T11:43:51.844Z,60.70
2023-01-06T11:46:23.917Z,60.94
2023-01-06T11:49:00.120Z,60.82
2023-01-06T11:51:49.003Z,60.71
2023-01-06T11:54:31.416Z,60.59
2023-01-06T11:57:17.364Z,60.83
2023-01-06T12:00:26.286Z,60.79
2023-01-06T12:03:03.540Z,60.59
2023-01-06T12:05:39.966Z,60.44
2023-01-06T12:08:16.154Z,60.58
2023-01-06T12:10:49.504Z,60.39
2023-01-06T12:13:20.363Z,60.05
2023-01-06T12:15:58.428Z,59.89
2023-01-06T12:18:31.634Z,59.82
2023-01-06T12:21:02.160Z,59.58
2023-01-06T12:23:35.943Z,59.67
2023-01-06T12:26:10.405Z,59.80
2023-01-06T12:28:42.777Z,59.55
2023-01-06T12:31:16.204Z,59.25
2023-01-06T12:33:49.042Z,59.24
2023-01-06T12:36:21.506Z,59.32
2023-01-06T12:38:55.959Z,59.01
2023-01-06T12:41:30.152Z,59.11
2023-01-06T12:44:04.912Z,59.07
2023-01-06T12:46:41.244Z,58.58
2023-01-06T12:49:21.790Z,59.16
2023-01-06T12:51:55.504Z,58.98
2023-01-06T12:54:29.102Z,58.69
2023-01-06T12:57:07.855Z,58.55
2023-01-06T12:59:46.921Z,58.77
2023-01-06T13:02:29.773Z,58.88
2023-01-06T13:05:24.105Z,58.96
2023-01-06T13:08:03.873Z,58.80
2023-01-06T13:10:39.608Z,58.68
2023-01-06T13:13:33.332Z,58.90
2023-01-06T13:16:06.518Z,59.08
2023-01-06T13:18:42.504Z,59.19
2023-01-06T13:21:14.294Z,58.77
2023-01-06T13:24:04.344Z,58.31
2023-01-06T13:27:03.337Z,58.33
2023-01-06T13:29:50.264Z,58.29
2023-01-06T13:32:50.166Z,58.42
2023-01-06T13:35:36.206Z,58.61
2023-01-06T13:38:22.307Z,58.77
2023-01-06T13:40:52.917Z,58.29
2023-01-06T13:43:24.389Z,58.42
2023-01-06T13:45:58.518Z,58.19
2023-01-06T13:48:31.926Z,58.51
2023-01-06T13:51:01.265Z,58.87
2023-01-06T13:53:37.115Z,58.51
2023-01-06T13:56:27.589Z,58.33
2023-01-06T13:59:24.209Z,58.23
2023-01-06T14:01:59.655Z,58.32
2023-01-06T14:04:49.692Z,58.09
2023-01-06T14:07:33.456Z,58.03
2023-01-06T14:10:02.369Z,58.31
2023-01-06T14:12:31.077Z,57.88
2023-01-06T14:15:03.053Z,57.51
2023-01-06T14:17:42.872Z,57.48
2023-01-06T14:20:30.021Z,57.33
2023-01-06T14:23:01.883Z,57.51
2023-01-06T14:25:31.254Z,57.42
2023-01-06T14:28:25.975Z,57.47
2023-01-06T14:31:25.606Z,57.49
2023-01-06T14:33:57.768Z,57.80
2023-01-06T14:36:28.079Z,57.53
2023-01-06T14:39:00.658Z,57.56
2023-01-06T14:41:32.309Z,57.54
2023-01-06T14:44:07.619Z,57.42
2023-01-06T14:46:42.943Z,57.55
2023-01-06T14:49:20.870Z,57.66
2023-01-06T14:51:52.636Z,57.94
2023-01-06T14:54:26.682Z,57.66
2023-01-06T14:56:56.825Z,57.73
2023-01-06T14:59:25.387Z,58.05
2023-01-06T15:02:00.126Z,58.26
2023-01-06T15:04:32.868Z,58.38
2023-01-06T15:07:17.068Z,58.56
2023-01-06T15:09:45.853Z,58.74
2023-01-06T15:12:35.133Z,59.06
2023-01-06T15:15:16.195Z,59.30
2023-01-06T15:17:44.585Z,59.42
2023-01-06T15:20:15.332Z,59.66
2023-01-06T15:22:46.880Z,59.86
2023-01-06T15:25:22.179Z,60.12
2023-01-06T15:27:50.787Z,60.15
2023-01-06T15:30:21.086Z,60.63
2023-01-06T15:32:51.276Z,60.50
2023-01-06T15:35:25.241Z,60.62
2023-01-06T15:38:00.079Z,60.85
2023-01-06T15:40:30.189Z,61.04
2023-01-06T15:42:59.810Z,61.15
2023-01-06T15:45:32.495Z,61.40
2023-01-06T15:48:09.472Z,61.36
2023-01-06T15:50:39.729Z,61.42
2023-01-06T15:53:19.756Z,61.62
2023-01-06T15:55:51.403Z,61.42
2023-01-06T15:58:25.709Z,61.56
2023-01-06T16:01:00.640Z,61.71
2023-01-06T16:03:32.078Z,61.90
2023-01-06T16:06:11.679Z,62.04
2023-01-06T16:08:40.991Z,61.63
2023-01-06T16:11:42.773Z,62.14
2023-01-06T16:14:26.922Z,61.82
2023-01-06T16:17:02.702Z,61.84
2023-01-06T16:19:31.213Z,62.13
2023-01-06T16:22:05.087Z,62.26
2023-01-06T16:24:33.585Z,62.15
2023-01-06T16:27:03.902Z,62.26
2023-01-06T16:29:33.934Z,62.16
2023-01-06T16:32:21.101Z,62.63
2023-01-06T16:34:55.159Z,62.46
2023-01-06T16:37:24.682Z,62.29
2023-01-06T16:39:59.376Z,62.33
2023-01-06T16:42:40.869Z,62.08
2023-01-06T16:45:14.274Z,62.68
2023-01-06T16:47:42.683Z,62.49
2023-01-06T16:50:19.693Z,62.52
2023-01-06T16:52:52.969Z,62.62
2023-01-06T16:55:21.780Z,62.41
2023-01-06T16:57:51.139Z,62.39
2023-01-06T17:00:22.444Z,62.48
2023-01-06T17:02:54.090Z,62.41
2023-01-06T17:05:28.003Z,63.02
2023-01-06T17:08:04.006Z,62.55
2023-01-06T17:10:48.137Z,62.65
2023-01-06T17:13:34.969Z,62.82
2023-01-06T17:16:14.899Z,62.55
2023-01-06T17:18:52.502Z,62.78
2023-01-06T17:21:22.845Z,62.72
2023-01-06T17:23:58.567Z,62.90
2023-01-06T17:26:28.657Z,62.88
2023-01-06T17:28:58.891Z,62.68
2023-01-06T17:31:36.506Z,62.89
2023-01-06T17:34:13.579Z,63.03
2023-01-06T17:36:44.215Z,62.81
2023-01-06T17:39:20.082Z,63.03
2023-01-06T17:41:48.069Z,63.08
2023-01-06T17:44:17.840Z,63.01
2023-01-06T17:46:46.872Z,63.12
2023-01-06T17:49:35.389Z,63.18
2023-01-06T17:52:15.837Z,63.31
2023-01-06T17:55:22.708Z,63.16
2023-01-06T17:57:51.638Z,63.13
2023-01-06T18:00:23.139Z,63.23
2023-01-06T18:02:56.796Z,62.95
2023-01-06T18:06:08.816Z,63.19
2023-01-06T18:08:38.835Z,63.21
2023-01-06T18:11:25.070Z,63.40
2023-01-06T18:13:54.035Z,63.39
2023-01-06T18:16:29.323Z,63.31
2023-01-06T18:19:05.820Z,63.43
2023-01-06T18:21:37.941Z,63.45
2023-01-06T18:24:20.092Z,63.37
2023-01-06T18:26:53.943Z,63.34
2023-01-06T18:29:25.545Z,63.24
2023-01-06T18:31:55.160Z,63.39
2023-01-06T18:34:36.486Z,62.97
2023-01-06T18:37:04.773Z,63.15
2023-01-06T18:39:39.793Z,62.97
2023-01-06T18:42:34.112Z,63.14
2023-01-06T18:45:19.275Z,63.11
2023-01-06T18:47:52.206Z,63.20
2023-01-06T18:50:33.418Z,63.17
2023-01-06T18:53:06.937Z,63.17
2023-01-06T18:55:38.703Z,62.96
2023-01-06T18:58:21.778Z,62.71
2023-01-06T19:00:54.393Z,62.76
2023-01-06T19:03:42.239Z,62.99
2023-01-06T19:06:41.681Z,62.80
2023-01-06T19:09:18.980Z,62.72
2023-01-06T19:11:48.270Z,62.82
2023-01-06T19:14:20.652Z,62.63
2023-01-06T19:17:00.286Z,62.72
2023-01-06T19:19:37.001Z,62.68
2023-01-06T19:22:17.242Z,62.51
2023-01-06T19:24:52.461Z,61.90
2023-01-06T19:27:50.997Z,62.43
2023-01-06T19:30:45.767Z,62.63
2023-01-06T19:33:39.159Z,62.45
2023-01-06T19:36:36.066Z,62.70
2023-01-06T19:39:16.780Z,62.40
2023-01-06T19:41:45.408Z,62.57
2023-01-06T19:44:15.152Z,62.48
2023-01-06T19:46:46.360Z,62.37
2023-01-06T19:49:18.304Z,62.55
2023-01-06T19:51:47.305Z,62.35
2023-01-06T19:54:26.199Z,62.52
2023-01-06T19:56:55.476Z,62.25
2023-01-06T19:59:26.532Z,62.21
2023-01-06T20:02:00.346Z,62.41
2023-01-06T20:04:29.112Z,62.07
2023-01-06T20:06:57.361Z,62.02
2023-01-06T20:09:25.812Z,62.34
2023-01-06T20:11:54.107Z,62.11
2023-01-06T20:14:22.575Z,62.07
2023-01-06T20:16:50.783Z,61.91
2023-01-06T20:19:21.712Z,61.74
2023-01-06T20:21:50.086Z,61.90
2023-01-06T20:24:18.127Z,61.71
2023-01-06T20:26:46.331Z,61.96
2023-01-06T20:29:14.311Z,61.53
2023-01-06T20:31:44.889Z,61.65
2023-01-06T20:34:12.904Z,61.69
2023-01-06T20:36:43.092Z,61.13
2023-01-06T20:39:12.220Z,61.32
2023-01-06T20:41:40.239Z,61.41
2023-01-06T20:44:08.398Z,61.48
2023-01-06T20:46:36.371Z,61.39
2023-01-06T20:49:04.432Z,61.45
2023-01-06T20:51:32.484Z,61.24
2023-01-06T20:54:01.916Z,60.90
2023-01-06T20:56:29.953Z,60.91
2023-01-06T20:58:58.034Z,61.21
2023-01-06T21:01:26.222Z,60.90
2023-01-06T21:03:54.499Z,60.88
2023-01-06T21:06:22.733Z,60.87
2023-01-06T21:08:50.686Z,61.12
2023-01-06T21:11:20.051Z,60.79
2023-01-06T21:13:48.180Z,60.89
2023-01-06T21:16:16.387Z,61.19
2023-01-06T21:18:44.295Z,61.32
2023-01-06T21:21:12.366Z,61.52
2023-01-06T21:23:40.850Z,61.23
2023-01-06T21:26:08.792Z,61.32
2023-01-06T21:28:38.247Z,61.72
2023-01-06T21:31:06.485Z,61.66
2023-01-06T21:33:34.549Z,61.27
2023-01-06T21:36:02.572Z,61.79
2023-01-06T21:38:30.764Z,61.52
2023-01-06T21:41:24.565Z,61.76
2023-01-06T21:43:53.199Z,61.52
2023-01-06T21:46:21.722Z,61.70
2023-01-06T21:48:49.809Z,61.62
2023-01-06T21:51:18.682Z,61.92
2023-01-06T21:53:47.002Z,61.56
2023-01-06T21:56:15.311Z,61.58
2023-01-06T21:58:43.643Z,61.26
2023-01-06T22:01:14.529Z,61.45
2023-01-06T22:03:42.513Z,61.29
2023-01-06T22:06:11.692Z,61.40
2023-01-06T22:08:40.375Z,61.49
2023-01-06T22:11:08.811Z,61.31
2023-01-06T22:13:37.497Z,61.53
2023-01-06T22:16:05.974Z,61.11
2023-01-06T22:18:38.616Z,61.26
2023-01-06T22:21:07.519Z,61.63
2023-01-06T22:23:36.845Z,61.38
2023-01-06T22:26:05.246Z,61.27
2023-01-06T22:28:33.310Z,61.49
2023-01-06T22:31:01.285Z,61.55
2023-01-06T22:33:29.240Z,61.50
2023-01-06T22:35:59.837Z,61.66
2023-01-06T22:38:28.087Z,61.81
2023-01-06T22:40:56.163Z,61.82
2023-01-06T22:43:24.287Z,61.91
2023-01-06T22:45:53.260Z,61.89
2023-01-06T22:48:21.916Z,61.85
2023-01-06T22:50:57.177Z,61.84
2023-01-06T22:53:27.754Z,62.02
2023-01-06T22:55:59.694Z,61.98
2023-01-06T22:58:28.376Z,61.93
2023-01-06T23:00:56.781Z,61.83
2023-01-06T23:03:24.931Z,61.58
2023-01-06T23:05:57.305Z,61.35
2023-01-06T23:08:27.264Z,61.29
2023-01-06T23:11:00.004Z,61.31
2023-01-06T23:13:28.179Z,61.03
2023-01-06T23:16:04.845Z,61.21
2023-01-06T23:18:33.807Z,61.11
2023-01-06T23:21:03.746Z,61.34
2023-01-06T23:23:34.740Z,61.14
2023-01-06T23:26:04.778Z,61.47
2023-01-06T23:28:33.338Z,61.37
2023-01-06T23:31:06.074Z,61.33
2023-01-06T23:33:38.157Z,61.56
2023-01-06T23:36:06.968Z,61.51
2023-01-06T23:38:37.070Z,61.41
2023-01-06T23:41:07.628Z,61.28
2023-01-06T23:43:36.937Z,61.42
2023-01-06T23:46:07.287Z,60.95
2023-01-06T23:48:37.050Z,60.85
2023-01-06T23:51:06.876Z,60.93
2023-01-06T23:53:37.839Z,61.16
2023-01-06T23:56:08.310Z,61.27
2023-01-06T23:58:38.293Z,61.04
